Portada
METAR-TAF:

METAR-TAF

Aeropuertos :

Irkutsk, Rusia

Aeropuerto Internacional de Irkutsk

latitud: 52-16N, longitud: 104-19E, altitud: 513 m

Observación

El informe se hizo hace 36 minutos, a las 22:30 UTC
Viento 4 kt del sur
Temperatura -16°C
Humedad 84%
Presión 1027 hPa
Visibilidad 10 km o más
sin nubes por debajo de 1500 m y sin presencia de cumulonimbus.

METAR: UIII 172230Z 17002MPS CAVOK M16/M18 Q1027 R30/810350 NOSIG RMK QFE725/0967

Hora: 07:06 (23:06 UTC)

Pronóstico

El informe se hizo hace 3 horas y 6 minutos, a las 20:00 UTC
Pronóstico válido del 17 a las 21 UTC al 18 a las 21 UTC
Viento 6 kt del este-noreste
Visibilidad 10 km o más
Cielo nuboso a una altura de 1100 ft
Temporalmente
del 17 a las 21 UTC al 18 a las 03 UTC
Visibilidad: 0300 m
a una altura de 100 ft
niebla engelante
Evolucionando progresivamente
del 18 a las 04 UTC al 18 a las 06 UTC

TAF: UIII 172000Z 1721/1821 06003MPS 9999 BKN011 TEMPO 1721/1803 0300 FZFG VV001 BECMG 1804/1806 NSC

Observaciones y pronósticos meteorológicos de más de 4000 aeropuertos (mensajes METAR y TAF).

Los puntos amarillos y rojos representan las estaciones disponibles.

Ponga el ratón en el punto deseado para ver el nombre de la estación.

Haga clic para ver las observaciones y los pronósticos meteorológicos.

Para cambiar el mapa : haga clic en los botones verdes con una cruz de color negro para hacer un zoom, en el botón verde con un guión para alejar o en las flechas verdes para mapas adyacentes.


METAR-TAF: